createdAt,value
2023-04-11T00:02:17.082Z,100382.34
2023-04-11T00:04:46.495Z,100383.94
2023-04-11T00:07:14.482Z,100371.09
2023-04-11T00:09:42.379Z,100360.19
2023-04-11T00:12:10.302Z,100357.03
2023-04-11T00:14:38.320Z,100350.47
2023-04-11T00:17:06.232Z,100355.84
2023-04-11T00:19:34.491Z,100347.22
2023-04-11T00:22:05.098Z,100343.56
2023-04-11T00:24:33.031Z,100345.66
2023-04-11T00:27:01.504Z,100327.69
2023-04-11T00:29:29.449Z,100343.13
2023-04-11T00:31:57.386Z,100339.69
2023-04-11T00:34:25.768Z,100335.16
2023-04-11T00:36:53.698Z,100335.72
2023-04-11T00:39:23.490Z,100331.03
2023-04-11T00:41:51.388Z,100334.28
2023-04-11T00:44:19.304Z,100342.50
2023-04-11T00:46:47.771Z,100331.19
2023-04-11T00:49:15.748Z,100339.72
2023-04-11T00:51:43.789Z,100330.31
2023-04-11T00:54:12.183Z,100342.81
2023-04-11T00:56:41.594Z,100346.13
2023-04-11T00:59:10.345Z,100343.66
2023-04-11T01:01:40.175Z,100344.59
2023-04-11T01:04:08.276Z,100343.66
2023-04-11T01:06:37.346Z,100331.28
2023-04-11T01:09:06.348Z,100327.34
2023-04-11T01:11:35.361Z,100323.44
2023-04-11T01:14:05.140Z,100322.03
2023-04-11T01:16:33.112Z,100323.81
2023-04-11T01:19:01.072Z,100321.41
2023-04-11T01:21:29.781Z,100308.06
2023-04-11T01:24:03.646Z,100316.38
2023-04-11T01:26:31.604Z,100306.69
2023-04-11T01:28:59.502Z,100309.03
2023-04-11T01:31:27.420Z,100309.78
2023-04-11T01:33:55.663Z,100305.72
2023-04-11T01:36:23.626Z,100308.91
2023-04-11T01:38:51.614Z,100306.03
2023-04-11T01:41:22.487Z,100280.41
2023-04-11T01:43:50.875Z,100296.00
2023-04-11T01:46:18.807Z,100291.03
2023-04-11T01:48:46.969Z,100287.38
2023-04-11T01:51:14.919Z,100284.41
2023-04-11T01:53:42.804Z,100280.66
2023-04-11T01:56:11.898Z,100285.34
2023-04-11T01:58:41.284Z,100276.13
2023-04-11T02:01:09.288Z,100276.81
2023-04-11T02:03:37.728Z,100277.88
2023-04-11T02:06:06.506Z,100266.03
2023-04-11T02:08:34.409Z,100279.53
2023-04-11T02:11:02.316Z,100280.47
2023-04-11T02:13:30.344Z,100275.47
2023-04-11T02:15:59.721Z,100289.09
2023-04-11T02:18:27.677Z,100279.75
2023-04-11T02:20:55.807Z,100271.34
2023-04-11T02:23:24.241Z,100265.59
2023-04-11T02:25:52.283Z,100262.06
2023-04-11T02:28:20.187Z,100264.94
2023-04-11T02:30:48.167Z,100267.72
2023-04-11T02:33:17.575Z,100246.06
2023-04-11T02:35:45.960Z,100244.94
2023-04-11T02:38:13.951Z,100238.38
2023-04-11T02:40:42.006Z,100242.53
2023-04-11T02:43:10.071Z,100235.84
2023-04-11T02:45:38.013Z,100236.75
2023-04-11T02:48:06.773Z,100230.75
2023-04-11T02:50:36.174Z,100227.59
2023-04-11T02:53:04.087Z,100226.94
2023-04-11T02:55:31.940Z,100218.44
2023-04-11T02:57:59.859Z,100227.78
2023-04-11T03:00:27.892Z,100207.59
2023-04-11T03:02:57.058Z,100207.81
2023-04-11T03:05:25.110Z,100215.53
2023-04-11T03:07:54.510Z,100221.72
2023-04-11T03:10:22.438Z,100216.22
2023-04-11T03:12:50.374Z,100220.19
2023-04-11T03:15:18.393Z,100210.19
2023-04-11T03:17:46.418Z,100217.28
2023-04-11T03:20:20.248Z,100216.53
2023-04-11T03:22:48.584Z,100205.66
2023-04-11T03:25:17.893Z,100209.59
2023-04-11T03:27:45.803Z,100200.94
2023-04-11T03:30:15.393Z,100181.72
2023-04-11T03:32:43.368Z,100200.72
2023-04-11T03:35:11.667Z,100187.72
2023-04-11T03:37:39.560Z,100182.94
2023-04-11T03:40:09.086Z,100194.34
2023-04-11T03:42:38.417Z,100192.00
2023-04-11T03:45:07.520Z,100190.50
2023-04-11T03:47:35.732Z,100190.56
2023-04-11T03:50:04.010Z,100185.97
2023-04-11T03:52:31.918Z,100184.63
2023-04-11T03:54:59.834Z,100178.00
2023-04-11T03:57:28.163Z,100179.22
2023-04-11T03:59:57.981Z,100167.31
2023-04-11T04:02:26.474Z,100177.50
2023-04-11T04:04:58.827Z,100182.50
2023-04-11T04:07:27.575Z,100173.03
2023-04-11T04:09:55.633Z,100170.44
2023-04-11T04:12:23.582Z,100171.19
2023-04-11T04:14:51.451Z,100168.69
2023-04-11T04:17:20.797Z,100167.03
2023-04-11T04:19:49.677Z,100169.72
2023-04-11T04:22:17.868Z,100164.84
2023-04-11T04:24:47.698Z,100153.00
2023-04-11T04:27:18.261Z,100160.59
2023-04-11T04:30:02.467Z,100159.47
2023-04-11T04:32:33.209Z,100155.75
2023-04-11T04:35:01.678Z,100146.47
2023-04-11T04:37:30.105Z,100146.47
2023-04-11T04:40:02.381Z,100145.88
2023-04-11T04:42:31.181Z,100143.19
2023-04-11T04:44:59.287Z,100138.28
2023-04-11T04:47:31.827Z,100137.16
2023-04-11T04:50:01.485Z,100140.28
2023-04-11T04:52:30.710Z,100141.03
2023-04-11T04:54:59.353Z,100127.38
2023-04-11T04:57:27.414Z,100112.63
2023-04-11T04:59:55.664Z,100117.13
2023-04-11T05:02:25.670Z,100119.97
2023-04-11T05:04:54.161Z,100097.66
2023-04-11T05:07:23.627Z,100121.91
2023-04-11T05:09:51.549Z,100122.22
2023-04-11T05:12:26.381Z,100128.91
2023-04-11T05:14:56.728Z,100116.00
2023-04-11T05:17:25.446Z,100134.72
2023-04-11T05:19:53.634Z,100118.50
2023-04-11T05:22:22.930Z,100132.97
2023-04-11T05:24:50.823Z,100133.59
2023-04-11T05:27:19.392Z,100128.78
2023-04-11T05:29:47.451Z,100126.19
2023-04-11T05:32:15.434Z,100119.97
2023-04-11T05:34:52.854Z,100109.25
2023-04-11T05:37:21.151Z,100115.28
2023-04-11T05:39:50.431Z,100111.66
2023-04-11T05:42:18.763Z,100112.78
2023-04-11T05:44:46.670Z,100104.69
2023-04-11T05:47:14.573Z,100092.75
2023-04-11T05:49:42.490Z,100096.81
2023-04-11T05:52:10.425Z,100097.94
2023-04-11T05:54:38.673Z,100081.91
2023-04-11T05:57:08.166Z,100094.00
2023-04-11T05:59:36.256Z,100085.16
2023-04-11T06:02:04.387Z,100086.50
2023-04-11T06:04:33.264Z,100099.34
2023-04-11T06:07:02.623Z,100074.00
2023-04-11T06:09:33.490Z,100089.78
2023-04-11T06:12:02.090Z,100091.06
2023-04-11T06:14:32.287Z,100078.44
2023-04-11T06:17:00.890Z,100087.41
2023-04-11T06:19:28.872Z,100085.78
2023-04-11T06:21:56.872Z,100072.31
2023-04-11T06:24:37.060Z,100069.81
2023-04-11T06:27:05.816Z,100072.41
2023-04-11T06:29:35.212Z,100068.78
2023-04-11T06:32:03.228Z,100058.09
2023-04-11T06:34:31.293Z,100044.94
2023-04-11T06:36:59.346Z,100058.28
2023-04-11T06:39:27.473Z,100059.81
2023-04-11T06:41:56.553Z,100059.81
2023-04-11T06:44:24.594Z,100051.16
2023-04-11T06:46:54.067Z,100053.41
2023-04-11T06:49:22.181Z,100062.03
2023-04-11T06:51:50.581Z,100046.16
2023-04-11T06:54:19.253Z,100046.78
2023-04-11T06:56:47.434Z,100050.06
2023-04-11T06:59:15.793Z,100043.41
2023-04-11T07:01:43.748Z,100039.63
2023-04-11T07:04:13.494Z,100040.53
2023-04-11T07:06:41.710Z,100033.88
2023-04-11T07:09:11.026Z,100049.31
2023-04-11T07:11:39.563Z,100047.97
2023-04-11T07:14:08.144Z,100040.88
2023-04-11T07:16:36.812Z,100040.69
2023-04-11T07:19:05.035Z,100035.56
2023-04-11T07:21:34.793Z,100036.31
2023-04-11T07:24:03.105Z,100037.50
2023-04-11T07:26:32.846Z,100040.69
2023-04-11T07:29:01.048Z,99986.78
2023-04-11T07:31:29.104Z,100041.59
2023-04-11T07:33:57.416Z,100030.47
2023-04-11T07:36:26.722Z,100031.94
2023-04-11T07:38:56.192Z,100030.63
2023-04-11T07:41:24.262Z,100030.09
2023-04-11T07:43:52.250Z,100028.63
2023-04-11T07:46:20.178Z,100032.28
2023-04-11T07:48:48.572Z,100035.53
2023-04-11T07:51:17.042Z,100034.19
2023-04-11T07:53:45.088Z,100024.50
2023-04-11T07:56:16.053Z,100032.88
2023-04-11T07:58:44.107Z,100022.94
2023-04-11T08:01:21.485Z,100008.66
2023-04-11T08:03:49.603Z,100031.00
2023-04-11T08:06:17.694Z,100027.38
2023-04-11T08:08:46.020Z,100003.09
2023-04-11T08:11:15.630Z,100020.06
2023-04-11T08:13:43.655Z,100002.50
2023-04-11T08:16:15.145Z,100006.66
2023-04-11T08:18:45.719Z,100001.72
2023-04-11T08:21:14.070Z,99982.56
2023-04-11T08:23:42.800Z,99993.00
2023-04-11T08:26:12.891Z,99975.81
2023-04-11T08:28:43.580Z,99965.22
2023-04-11T08:31:13.393Z,99955.47
2023-04-11T08:33:42.324Z,99964.66
2023-04-11T08:36:11.508Z,99932.03
2023-04-11T08:38:40.456Z,99945.53
2023-04-11T08:41:09.270Z,99949.72
2023-04-11T08:43:37.966Z,99939.63
2023-04-11T08:46:08.940Z,99927.19
2023-04-11T08:48:37.043Z,99930.00
2023-04-11T08:51:05.738Z,99920.69
2023-04-11T08:53:37.147Z,99924.59
2023-04-11T08:56:06.777Z,99911.38
2023-04-11T08:58:35.087Z,99905.19
2023-04-11T09:01:25.844Z,99905.72
2023-04-11T09:03:53.848Z,99904.75
2023-04-11T09:06:21.961Z,99891.41
2023-04-11T09:08:50.408Z,99894.88
2023-04-11T09:11:19.214Z,99886.09
2023-04-11T09:13:47.118Z,99888.22
2023-04-11T09:16:17.103Z,99875.59
2023-04-11T09:18:46.639Z,99868.09
2023-04-11T09:21:16.225Z,99869.72
2023-04-11T09:23:44.972Z,99866.06
2023-04-11T09:26:14.079Z,99864.44
2023-04-11T09:28:43.309Z,99869.00
2023-04-11T09:31:13.172Z,99855.13
2023-04-11T09:33:53.734Z,99860.84
2023-04-11T09:36:23.449Z,99866.84
2023-04-11T09:38:51.803Z,99847.78
2023-04-11T09:41:30.983Z,99839.41
2023-04-11T09:43:59.193Z,99841.63
2023-04-11T09:46:27.376Z,99817.50
2023-04-11T09:48:57.884Z,99816.59
2023-04-11T09:53:58.364Z,99816.19
2023-04-11T09:56:27.389Z,99827.88
2023-04-11T09:58:58.176Z,99832.66
2023-04-11T10:01:27.525Z,99815.72
2023-04-11T10:03:58.536Z,99818.56
2023-04-11T10:06:34.439Z,99818.56
2023-04-11T10:09:09.808Z,99807.13
2023-04-11T10:11:38.200Z,99808.03
2023-04-11T10:14:06.182Z,99792.97
2023-04-11T10:16:34.670Z,99813.22
2023-04-11T10:19:27.175Z,99816.41
2023-04-11T10:21:55.159Z,99812.63
2023-04-11T10:24:23.334Z,99824.78
2023-04-11T10:26:53.543Z,99816.50
2023-04-11T10:29:51.551Z,99812.69
2023-04-11T10:32:22.321Z,99811.47
2023-04-11T10:35:32.973Z,99805.06
2023-04-11T10:38:02.356Z,99805.25
2023-04-11T10:40:30.325Z,99799.81
2023-04-11T10:42:58.634Z,99784.97
2023-04-11T10:45:28.057Z,99807.28
2023-04-11T10:48:11.745Z,99804.00
2023-04-11T10:50:42.965Z,99788.66
2023-04-11T10:53:36.574Z,99802.94
2023-04-11T10:56:04.972Z,99801.03
2023-04-11T10:58:37.910Z,99809.44
2023-04-11T11:01:37.171Z,99811.28
2023-04-11T11:04:11.186Z,99748.50
2023-04-11T11:06:50.803Z,99799.75
2023-04-11T11:09:28.431Z,99780.25
2023-04-11T11:12:07.455Z,99788.28
2023-04-11T11:14:35.575Z,99764.97
2023-04-11T11:17:04.391Z,99773.22
2023-04-11T11:19:32.780Z,99750.66
2023-04-11T11:22:03.667Z,99762.94
2023-04-11T11:24:33.377Z,99766.78
2023-04-11T11:27:01.428Z,99774.16
2023-04-11T11:29:34.062Z,99760.44
2023-04-11T11:32:04.007Z,99760.34
2023-04-11T11:34:33.830Z,99751.31
2023-04-11T11:37:05.487Z,99756.25
2023-04-11T11:39:35.940Z,99752.63
2023-04-11T11:42:04.567Z,99747.84
2023-04-11T11:44:32.904Z,99730.06
2023-04-11T11:47:05.222Z,99766.06
2023-04-11T11:49:47.113Z,99770.16
2023-04-11T11:52:32.825Z,99774.75
2023-04-11T11:55:03.361Z,99771.66
2023-04-11T11:57:31.438Z,99766.94
2023-04-11T12:00:01.913Z,99783.25
2023-04-11T12:02:29.941Z,99780.88
2023-04-11T12:05:00.063Z,99786.47
2023-04-11T12:07:33.417Z,99783.63
2023-04-11T12:10:03.263Z,99783.38
2023-04-11T12:12:36.276Z,99771.41
2023-04-11T12:15:04.821Z,99786.50
2023-04-11T12:17:37.807Z,99779.16
2023-04-11T12:20:08.067Z,99777.22
2023-04-11T12:22:36.592Z,99753.34
2023-04-11T12:25:12.000Z,99778.31
2023-04-11T12:27:40.780Z,99770.94
2023-04-11T12:30:10.066Z,99773.44
2023-04-11T12:32:38.188Z,99767.16
2023-04-11T12:35:07.638Z,99751.31
2023-04-11T12:37:36.408Z,99755.53
2023-04-11T12:40:09.360Z,99745.63
2023-04-11T12:42:49.462Z,99742.72
2023-04-11T12:45:23.822Z,99736.69
2023-04-11T12:47:51.809Z,99739.31
2023-04-11T12:50:19.820Z,99734.69
2023-04-11T12:52:48.761Z,99713.78
2023-04-11T12:55:16.746Z,99744.56
2023-04-11T12:57:46.085Z,99730.53
2023-04-11T13:00:16.697Z,99730.84
2023-04-11T13:02:45.584Z,99736.94
2023-04-11T13:05:15.689Z,99721.41
2023-04-11T13:07:44.971Z,99727.28
2023-04-11T13:10:14.276Z,99720.59
2023-04-11T13:12:44.867Z,99711.72
2023-04-11T13:15:16.290Z,99710.06
2023-04-11T13:17:44.512Z,99713.34
2023-04-11T13:20:13.811Z,99698.06
2023-04-11T13:22:43.329Z,99704.34
2023-04-11T13:25:12.275Z,99716.09
2023-04-11T13:27:40.714Z,99714.31
2023-04-11T13:30:10.548Z,99708.88
2023-04-11T13:32:40.031Z,99711.97
2023-04-11T13:35:09.117Z,99706.78
2023-04-11T13:37:37.093Z,99703.56
2023-04-11T13:40:08.437Z,99698.34
2023-04-11T13:42:36.634Z,99698.34
2023-04-11T13:45:05.041Z,99695.72
2023-04-11T13:47:33.808Z,99701.97
2023-04-11T13:50:05.290Z,99697.84
2023-04-11T13:52:33.350Z,99699.38
2023-04-11T13:55:01.334Z,99704.34
2023-04-11T13:57:29.449Z,99691.09
2023-04-11T13:59:57.384Z,99698.06
2023-04-11T14:02:25.458Z,99695.13
2023-04-11T14:04:53.656Z,99688.25
2023-04-11T14:07:22.946Z,99696.16
2023-04-11T14:09:50.995Z,99707.28
2023-04-11T14:12:19.234Z,99703.00
2023-04-11T14:14:47.201Z,99699.81
2023-04-11T14:17:15.129Z,99702.78
2023-04-11T14:19:43.196Z,99699.97
2023-04-11T14:22:11.366Z,99709.31
2023-04-11T14:24:40.765Z,99704.47
2023-04-11T14:27:08.677Z,99703.06
2023-04-11T14:29:37.616Z,99700.75
2023-04-11T14:32:07.166Z,99700.97
2023-04-11T14:34:35.169Z,99706.16
2023-04-11T14:37:03.149Z,99708.03
2023-04-11T14:39:31.707Z,99699.69
2023-04-11T14:42:02.101Z,99679.59
2023-04-11T14:44:30.488Z,99684.41
2023-04-11T14:46:58.436Z,99684.53
2023-04-11T14:49:26.639Z,99687.41
2023-04-11T14:51:54.773Z,99685.13
2023-04-11T14:54:24.175Z,99695.75
2023-04-11T14:56:52.440Z,99688.56
2023-04-11T14:59:22.152Z,99688.34
2023-04-11T15:01:50.098Z,99683.47
2023-04-11T15:04:18.243Z,99675.66
2023-04-11T15:06:46.570Z,99678.25
2023-04-11T15:09:19.867Z,99679.81
2023-04-11T15:11:47.796Z,99673.06
2023-04-11T15:14:16.105Z,99682.53
2023-04-11T15:16:45.487Z,99675.78
2023-04-11T15:19:13.376Z,99672.00
2023-04-11T15:21:41.264Z,99673.06
2023-04-11T15:24:09.208Z,99678.47
2023-04-11T15:26:37.146Z,99612.91
2023-04-11T15:29:05.071Z,99669.00
2023-04-11T15:31:33.251Z,99673.47
2023-04-11T15:34:04.120Z,99664.00
2023-04-11T15:36:32.364Z,99670.94
2023-04-11T15:39:00.765Z,99667.88
2023-04-11T15:41:28.699Z,99667.13
2023-04-11T15:43:56.707Z,99654.25
2023-04-11T15:46:27.248Z,99659.63
2023-04-11T15:48:55.197Z,99648.72
2023-04-11T15:51:24.669Z,99656.53
2023-04-11T15:53:52.925Z,99646.59
2023-04-11T15:56:20.823Z,99652.13
2023-04-11T15:58:49.822Z,99655.78
2023-04-11T16:01:22.918Z,99630.09
2023-04-11T16:03:51.648Z,99637.94
2023-04-11T16:06:20.082Z,99642.31
2023-04-11T16:08:49.410Z,99639.63
2023-04-11T16:11:17.342Z,99627.69
2023-04-11T16:13:45.375Z,99631.34
2023-04-11T16:16:13.348Z,99631.84
2023-04-11T16:18:41.657Z,99629.69
2023-04-11T16:21:13.519Z,99635.13
2023-04-11T16:23:41.534Z,99635.50
2023-04-11T16:26:11.269Z,99635.72
2023-04-11T16:28:39.266Z,99623.22
2023-04-11T16:31:07.971Z,99624.16
2023-04-11T16:33:35.914Z,99638.31
2023-04-11T16:36:03.973Z,99639.28
2023-04-11T16:38:32.258Z,99618.47
2023-04-11T16:41:01.442Z,99624.06
2023-04-11T16:43:30.788Z,99630.09
2023-04-11T16:45:59.062Z,99629.09
2023-04-11T16:48:27.329Z,99629.94
2023-04-11T16:50:55.278Z,99624.63
2023-04-11T16:53:23.196Z,99625.31
2023-04-11T16:55:52.698Z,99626.84
2023-04-11T16:58:20.662Z,99634.19
2023-04-11T17:00:51.251Z,99641.47
2023-04-11T17:03:19.858Z,99634.00
2023-04-11T17:05:47.864Z,99645.13
2023-04-11T17:08:15.921Z,99646.47
2023-04-11T17:10:44.211Z,99650.31
2023-04-11T17:13:12.860Z,99641.59
2023-04-11T17:15:40.993Z,99638.53
2023-04-11T17:18:10.468Z,99651.06
2023-04-11T17:20:38.384Z,99650.59
2023-04-11T17:23:06.399Z,99656.88
2023-04-11T17:25:34.313Z,99659.84
2023-04-11T17:28:02.440Z,99657.69
2023-04-11T17:30:32.147Z,99650.38
2023-04-11T17:33:00.386Z,99651.00
2023-04-11T17:35:30.157Z,99654.16
2023-04-11T17:37:58.040Z,99658.53
2023-04-11T17:40:26.722Z,99654.75
2023-04-11T17:42:56.906Z,99647.06
2023-04-11T17:45:24.932Z,99644.13
2023-04-11T17:47:52.899Z,99643.41
2023-04-11T17:50:21.345Z,99632.41
2023-04-11T17:52:51.246Z,99630.75
2023-04-11T17:55:20.903Z,99598.53
2023-04-11T17:57:49.869Z,99623.94
2023-04-11T18:00:23.278Z,99616.81
2023-04-11T18:02:54.844Z,99609.03
2023-04-11T18:05:26.125Z,99610.56
2023-04-11T18:07:57.609Z,99595.19
2023-04-11T18:10:27.258Z,99611.88
2023-04-11T18:12:57.557Z,99625.56
2023-04-11T18:15:27.323Z,99633.97
2023-04-11T18:17:55.707Z,99639.66
2023-04-11T18:20:24.127Z,99636.31
2023-04-11T18:22:54.905Z,99625.34
2023-04-11T18:25:24.532Z,99640.00
2023-04-11T18:27:52.476Z,99644.69
2023-04-11T18:30:20.825Z,99638.69
2023-04-11T18:32:51.001Z,99635.84
2023-04-11T18:35:19.534Z,99642.34
2023-04-11T18:37:47.628Z,99622.97
2023-04-11T18:40:16.775Z,99635.00
2023-04-11T18:42:47.964Z,99639.97
2023-04-11T18:45:18.084Z,99634.78
2023-04-11T18:47:46.546Z,99638.44
2023-04-11T18:50:15.044Z,99635.84
2023-04-11T18:52:44.898Z,99640.47
2023-04-11T18:55:13.382Z,99637.16
2023-04-11T18:57:43.532Z,99631.03
2023-04-11T19:00:18.543Z,99632.91
2023-04-11T19:02:47.811Z,99612.56
2023-04-11T19:05:17.036Z,99625.31
2023-04-11T19:07:45.932Z,99616.59
2023-04-11T19:10:14.267Z,99628.41
2023-04-11T19:12:42.470Z,99618.22
2023-04-11T19:15:11.749Z,99630.63
2023-04-11T19:17:41.371Z,99597.69
2023-04-11T19:20:13.224Z,99632.16
2023-04-11T19:22:43.058Z,99634.69
2023-04-11T19:25:14.723Z,99623.25
2023-04-11T19:27:42.865Z,99616.72
2023-04-11T19:30:13.864Z,99592.66
2023-04-11T19:32:46.101Z,99606.63
2023-04-11T19:35:15.056Z,99611.25
2023-04-11T19:37:43.121Z,99605.13
2023-04-11T19:40:12.469Z,99605.94
2023-04-11T19:42:40.622Z,99596.03
2023-04-11T19:45:11.573Z,99582.56
2023-04-11T19:47:41.028Z,99593.34
2023-04-11T19:50:13.487Z,99601.97
2023-04-11T19:52:42.318Z,99591.25
2023-04-11T19:55:11.475Z,99598.13
2023-04-11T19:57:40.379Z,99598.63
2023-04-11T20:00:14.474Z,99588.38
2023-04-11T20:02:45.947Z,99582.81
2023-04-11T20:05:18.785Z,99586.47
2023-04-11T20:07:47.995Z,99581.41
2023-04-11T20:10:17.372Z,99579.88
2023-04-11T20:12:46.065Z,99577.25
2023-04-11T20:15:15.130Z,99569.78
2023-04-11T20:17:45.838Z,99559.88
2023-04-11T20:20:15.761Z,99565.81
2023-04-11T20:22:46.098Z,99564.97
2023-04-11T20:25:14.428Z,99554.22
2023-04-11T20:27:43.846Z,99558.13
2023-04-11T20:30:13.355Z,99557.31
2023-04-11T20:32:42.487Z,99562.13
2023-04-11T20:35:12.208Z,99563.19
2023-04-11T20:37:41.464Z,99555.34
2023-04-11T20:40:13.226Z,99535.91
2023-04-11T20:42:42.776Z,99547.00
2023-04-11T20:45:12.750Z,99559.41
2023-04-11T20:47:41.710Z,99551.59
2023-04-11T20:50:13.896Z,99543.94
2023-04-11T20:52:43.418Z,99547.75
2023-04-11T20:55:14.496Z,99528.78
2023-04-11T20:57:43.116Z,99533.63
2023-04-11T21:00:14.184Z,99523.91
2023-04-11T21:02:44.255Z,99534.91
2023-04-11T21:05:13.287Z,99540.44
2023-04-11T21:07:43.345Z,99541.75
2023-04-11T21:10:13.262Z,99546.72
2023-04-11T21:12:42.406Z,99525.34
2023-04-11T21:15:11.976Z,99519.94
2023-04-11T21:17:40.906Z,99513.09
2023-04-11T21:20:18.232Z,99534.13
2023-04-11T21:22:47.951Z,99525.63
2023-04-11T21:25:17.989Z,99516.41
2023-04-11T21:27:46.381Z,99505.78
2023-04-11T21:30:15.236Z,99512.16
2023-04-11T21:32:43.844Z,99513.59
2023-04-11T21:35:12.897Z,99508.22
2023-04-11T21:37:41.176Z,99521.72
2023-04-11T21:40:10.112Z,99522.59
2023-04-11T21:42:39.663Z,99524.94
2023-04-11T21:45:09.530Z,99521.78
2023-04-11T21:47:37.554Z,99523.44
2023-04-11T21:50:06.046Z,99522.94
2023-04-11T21:52:34.075Z,99515.25
2023-04-11T21:55:02.103Z,99517.16
2023-04-11T21:57:32.913Z,99513.31
2023-04-11T22:00:02.433Z,99503.34
2023-04-11T22:02:30.950Z,99510.47
2023-04-11T22:05:06.211Z,99512.59
2023-04-11T22:07:39.037Z,99504.88
2023-04-11T22:10:10.593Z,99509.84
2023-04-11T22:12:39.282Z,99504.41
2023-04-11T22:15:12.671Z,99503.59
2023-04-11T22:17:42.333Z,99496.34
2023-04-11T22:20:11.538Z,99500.13
2023-04-11T22:22:39.581Z,99489.03
2023-04-11T22:25:10.013Z,99507.91
2023-04-11T22:27:38.547Z,99496.91
2023-04-11T22:30:09.883Z,99485.56
2023-04-11T22:32:38.424Z,99505.53
2023-04-11T22:35:08.327Z,99484.06
2023-04-11T22:37:36.386Z,99474.47
2023-04-11T22:40:06.125Z,99502.72
2023-04-11T22:42:34.099Z,99500.28
2023-04-11T22:45:02.082Z,99498.03
2023-04-11T22:47:34.324Z,99499.75
2023-04-11T22:50:03.800Z,99499.66
2023-04-11T22:52:31.796Z,99497.41
2023-04-11T22:54:59.734Z,99497.97
2023-04-11T22:57:27.651Z,99493.88
2023-04-11T22:59:55.701Z,99496.09
2023-04-11T23:02:25.365Z,99497.97
2023-04-11T23:04:54.851Z,99504.97
2023-04-11T23:07:25.237Z,99500.09
2023-04-11T23:09:53.737Z,99489.38
2023-04-11T23:12:23.252Z,99508.19
2023-04-11T23:14:53.250Z,99511.50
2023-04-11T23:17:21.478Z,99496.97
2023-04-11T23:19:49.624Z,99504.75
2023-04-11T23:22:19.585Z,99491.84
2023-04-11T23:24:47.892Z,99502.50
2023-04-11T23:27:17.211Z,99484.06
2023-04-11T23:29:50.045Z,99503.22
2023-04-11T23:32:18.978Z,99496.84
2023-04-11T23:34:47.361Z,99501.34
2023-04-11T23:37:16.670Z,99490.94
2023-04-11T23:39:46.298Z,99496.16
2023-04-11T23:42:14.779Z,99494.25
2023-04-11T23:44:42.860Z,99491.66
2023-04-11T23:47:10.912Z,99490.94
2023-04-11T23:49:38.983Z,99478.78
2023-04-11T23:52:07.711Z,99469.13
2023-04-11T23:54:36.658Z,99477.72
2023-04-11T23:57:06.384Z,99477.72
2023-04-11T23:59:34.697Z,99472.44
